Nearby METAR Reports

 

KHOT - Hot Springs, Arkansas, USA
Distance from station: W 8mi, 14km
Updated: 08/19/2018 3:53am
Overcast
Overcast
 Wind from calm
Wind: Calm
Temperature: 77°F , 25°C
Dew Point: 75°F , 24°C
Humidity: 94%
Barometer: 29.90 inHg , 1012.5 hPa
Clouds: Overcast
Visibility: 8 miles , 13 km
Cloud details: Partly cloudy 1000 ft
Overcast 5000 ft
2018/08/19 08:53 KHOT 190853Z AUTO 00000KT 8SM SCT010 OVC050 25/24 A2990 RMK AO2 SLP116 T02500244 55011
KMWT - Mount Ida, Arkansas, USA
Distance from station: W 36mi, 58km
Updated: 08/19/2018 4:30am
Mist, Overcast
Mist, Overcast
 Wind from calm
Wind: Calm
Temperature: 73°F , 23°C
Dew Point: 73°F , 23°C
Humidity: 100%
Barometer: 29.87 inHg , 1011.5 hPa
Summary: Mist
Clouds: Overcast
Visibility: 2 1/2 miles , 2 km
Cloud details: Mostly cloudy 300 ft
Overcast 1000 ft
2018/08/19 09:30 KMWT 190930Z AUTO 00000KT 2 1/2SM BR BKN003 OVC010 23/23 A2987 RMK AO2 T02330233 $
 
KLIT - Little Rock, Arkansas, USA
Distance from station: ENE 45mi, 73km
Updated: 08/19/2018 4:16am
Mist, Mostly cloudy
Mist, Mostly cloudy
 Wind from NNE
Wind: NNE 5 mph , 7 km/h
Temperature: 73°F , 23°C
Dew Point: 73°F , 23°C
Humidity: 100%
Barometer: 29.88 inHg , 1011.9 hPa
Summary: Mist
Clouds: Mostly cloudy
Visibility: 2 miles , 3 km
Cloud details: Mostly cloudy 700 ft
Mostly cloudy 25000 ft
2018/08/19 09:16 KLIT 190916Z 02004KT 2SM BR BKN007 BKN250 23/23 A2988 RMK AO2 BR BKN007 T02280228
KLRF - Little Rock Afb, Arkansas, USA
Distance from station: NE 56mi, 89km
Updated: 08/19/2018 4:11am
Mist, Mostly cloudy
Mist, Mostly cloudy
 Wind from calm
Wind: Calm
Temperature: 72°F , 22°C
Dew Point: 72°F , 22°C
Humidity: 100%
Barometer: 29.89 inHg , 1012.2 hPa
Summary: Mist
Clouds: Mostly cloudy
Visibility: 4 miles , 6 km
Cloud details: Few Clouds 100 ft
Mostly cloudy 300 ft
Mostly cloudy 25000 ft
2018/08/19 09:11 KLRF 190911Z 00000KT 4SM BR FEW001 BKN003 BKN250 22/22 A2989 RMK SLP121